Time;durP1;ratioP1;P1;durP2;ratioP2;P2;SDS_P1;SDS_P2;PMS_P1;PMS_P2;Temp;Humidity;BMP_temperature;BMP_pressure;BME280_temperature;BME280_humidity;BME280_pressure;Samples;Min_cycle;Max_cycle;Signal;HPM_P1;HPM_P2
2023/06/10 00:00:47;;;;;;;;;;;;;;;15.92;100.00;95245.34;10515732;28;1395;-72
2023/06/10 00:05:50;;;;;;;;;;;;;;;15.85;100.00;95245.03;10514312;28;1198;-71
2023/06/10 00:10:53;;;;;;;;;;;;;;;15.78;100.00;95242.00;10517144;28;1958;-71
2023/06/10 00:15:56;;;;;;;;;;;;;;;15.73;100.00;95253.00;10515702;28;1511;-71
2023/06/10 00:21:03;;;;;;;;;;;;;;;15.61;100.00;95243.53;10511703;28;1562;-73
2023/06/10 00:26:05;;;;;;;;;;;;;;;15.50;100.00;95239.53;10516159;28;2518;-71
2023/06/10 00:31:08;;;;;;;;;;;;;;;15.49;100.00;95246.09;10517631;28;1922;-73
2023/06/10 00:36:10;;;;;;;;;;;;;;;15.43;100.00;95244.63;10513775;28;1428;-72
2023/06/10 00:41:13;;;;;;;;;;;;;;;15.34;100.00;95249.25;10507446;28;5137;-72
2023/06/10 00:46:15;;;;;;;;;;;;;;;15.24;100.00;95246.84;10516415;28;1135;-72
2023/06/10 00:51:18;;;;;;;;;;;;;;;15.19;100.00;95250.47;10516795;28;1921;-72
2023/06/10 00:56:21;;;;;;;;;;;;;;;15.13;100.00;95257.94;10520066;28;1179;-72
2023/06/10 01:01:23;;;;;;;;;;;;;;;15.09;100.00;95251.59;10496481;28;1549;-73
2023/06/10 01:06:29;;;;;;;;;;;;;;;14.99;100.00;95246.44;10518592;28;1226;-72
2023/06/10 01:11:31;;;;;;;;;;;;;;;14.97;100.00;95254.09;10507967;28;1979;-72
2023/06/10 01:16:35;;;;;;;;;;;;;;;14.94;100.00;95256.63;10516069;28;1419;-73
2023/06/10 01:21:38;;;;;;;;;;;;;;;14.89;100.00;95249.47;10518286;28;2318;-72
2023/06/10 01:26:41;;;;;;;;;;;;;;;14.86;100.00;95252.78;10524933;28;1240;-73
2023/06/10 01:31:45;;;;;;;;;;;;;;;14.77;100.00;95250.06;10521256;28;1895;-71
2023/06/10 01:36:48;;;;;;;;;;;;;;;14.77;100.00;95268.19;10524196;28;1319;-71
2023/06/10 01:41:51;;;;;;;;;;;;;;;14.71;100.00;95272.94;10513073;28;1902;-71
2023/06/10 01:46:53;;;;;;;;;;;;;;;14.65;100.00;95273.41;10524929;28;1209;-72
2023/06/10 01:51:56;;;;;;;;;;;;;;;14.62;100.00;95274.00;10516391;28;1910;-72
2023/06/10 01:56:59;;;;;;;;;;;;;;;14.58;100.00;95279.25;10523726;28;1174;-72
2023/06/10 02:02:01;;;;;;;;;;;;;;;14.53;100.00;95288.28;10522279;28;1489;-72
2023/06/10 02:07:04;;;;;;;;;;;;;;;14.51;100.00;95282.41;10523615;28;1193;-72
2023/06/10 02:12:07;;;;;;;;;;;;;;;14.52;100.00;95281.28;10501159;28;1965;-72
2023/06/10 02:17:12;;;;;;;;;;;;;;;14.49;100.00;95284.59;10514040;28;3220;-72
2023/06/10 02:22:15;;;;;;;;;;;;;;;14.43;100.00;95274.97;10540565;28;1484;-73
2023/06/10 02:27:17;;;;;;;;;;;;;;;14.47;100.00;95283.31;10521127;28;1477;-71
2023/06/10 02:32:20;;;;;;;;;;;;;;;14.37;100.00;95281.63;10533260;28;1915;-73
2023/06/10 02:37:22;;;;;;;;;;;;;;;14.37;100.00;95276.22;10522703;28;1442;-72
2023/06/10 02:42:24;;;;;;;;;;;;;;;14.38;100.00;95282.44;10516171;28;5267;-71
2023/06/10 02:47:27;;;;;;;;;;;;;;;14.26;100.00;95283.00;10521088;28;1185;-71
2023/06/10 02:52:30;;;;;;;;;;;;;;;14.23;100.00;95284.41;10511368;28;1967;-71
2023/06/10 02:57:32;;;;;;;;;;;;;;;14.20;100.00;95281.53;10519482;28;1310;-71
2023/06/10 03:02:38;;;;;;;;;;;;;;;14.22;100.00;95282.03;10520132;28;1118;-72
2023/06/10 03:07:41;;;;;;;;;;;;;;;14.27;100.00;95284.59;10511713;28;1485;-72
2023/06/10 03:12:43;;;;;;;;;;;;;;;14.31;100.00;95296.38;10518331;28;2298;-71
2023/06/10 03:17:45;;;;;;;;;;;;;;;14.32;100.00;95308.81;10519863;28;1132;-71
2023/06/10 03:22:48;;;;;;;;;;;;;;;14.14;100.00;95321.41;10518857;28;1476;-71
2023/06/10 03:27:51;;;;;;;;;;;;;;;14.06;100.00;95314.84;10514851;28;1452;-72
2023/06/10 03:32:53;;;;;;;;;;;;;;;14.12;100.00;95312.78;10521917;28;1981;-72
2023/06/10 03:37:56;;;;;;;;;;;;;;;14.05;100.00;95324.03;10514866;28;1376;-72
2023/06/10 03:42:58;;;;;;;;;;;;;;;14.06;100.00;95320.25;10515612;28;1495;-72
2023/06/10 03:48:01;;;;;;;;;;;;;;;14.06;100.00;95333.75;10519233;28;1102;-73
2023/06/10 03:53:03;;;;;;;;;;;;;;;14.24;100.00;95323.06;10513678;28;1978;-72
2023/06/10 03:58:05;;;;;;;;;;;;;;;14.58;100.00;95328.72;10518747;28;1178;-72
2023/06/10 04:03:08;;;;;;;;;;;;;;;14.79;100.00;95325.50;10518643;28;1563;-72
2023/06/10 04:08:11;;;;;;;;;;;;;;;15.17;100.00;95319.59;10511194;28;2255;-72
2023/06/10 04:13:14;;;;;;;;;;;;;;;15.19;100.00;95331.72;10512378;28;1950;-71
2023/06/10 04:18:17;;;;;;;;;;;;;;;15.43;100.00;95325.88;10522451;28;1103;-71
2023/06/10 04:23:20;;;;;;;;;;;;;;;15.82;100.00;95332.38;10512240;28;1408;-72
2023/06/10 04:28:22;;;;;;;;;;;;;;;15.95;100.00;95336.84;10510944;28;1377;-73
2023/06/10 04:33:25;;;;;;;;;;;;;;;16.11;100.00;95339.88;10518474;28;1957;-71
2023/06/10 04:38:28;;;;;;;;;;;;;;;15.87;100.00;95343.06;10514809;28;1470;-71
2023/06/10 04:43:30;;;;;;;;;;;;;;;15.76;100.00;95349.88;10512026;28;5144;-72
2023/06/10 04:48:35;;;;;;;;;;;;;;;15.99;100.00;95343.22;10514708;28;1412;-71
2023/06/10 04:53:37;;;;;;;;;;;;;;;16.36;100.00;95341.78;10518426;28;1887;-73
2023/06/10 04:58:40;;;;;;;;;;;;;;;16.45;100.00;95339.06;10524530;28;1381;-72
2023/06/10 05:03:42;;;;;;;;;;;;;;;16.91;100.00;95341.06;10525653;28;2553;-72
2023/06/10 05:08:44;;;;;;;;;;;;;;;16.78;100.00;95343.97;10523906;28;1364;-72
2023/06/10 05:13:47;;;;;;;;;;;;;;;17.14;100.00;95341.63;10518985;28;1361;-71
2023/06/10 05:18:50;;;;;;;;;;;;;;;17.08;100.00;95342.94;10524759;28;1162;-72
2023/06/10 05:23:53;;;;;;;;;;;;;;;17.29;100.00;95337.56;10523733;28;1420;-71
2023/06/10 05:28:56;;;;;;;;;;;;;;;17.48;100.00;95337.16;10516038;28;1890;-72
2023/06/10 05:33:58;;;;;;;;;;;;;;;17.99;100.00;95336.06;10524328;28;1086;-71
2023/06/10 05:39:01;;;;;;;;;;;;;;;18.23;100.00;95340.84;10519721;28;1376;-71
2023/06/10 05:44:04;;;;;;;;;;;;;;;18.64;100.00;95340.00;10522672;28;5623;-73
2023/06/10 05:49:07;;;;;;;;;;;;;;;18.52;100.00;95350.06;10522893;28;1973;-71
2023/06/10 05:54:09;;;;;;;;;;;;;;;18.69;100.00;95343.66;10524222;28;1196;-72
2023/06/10 05:59:12;;;;;;;;;;;;;;;18.55;100.00;95338.50;10519888;28;2479;-71
2023/06/10 06:04:14;;;;;;;;;;;;;;;18.71;100.00;95338.69;10522848;28;1209;-72
2023/06/10 06:09:16;;;;;;;;;;;;;;;18.83;100.00;95344.16;10520582;28;1886;-72
2023/06/10 06:14:19;;;;;;;;;;;;;;;19.10;100.00;95348.22;10516642;28;1423;-72
2023/06/10 06:19:21;;;;;;;;;;;;;;;19.44;100.00;95349.72;10524140;28;1193;-72
2023/06/10 06:24:24;;;;;;;;;;;;;;;19.58;100.00;95355.66;10515032;28;1389;-71
2023/06/10 06:29:26;;;;;;;;;;;;;;;19.14;100.00;95352.63;10516498;28;1909;-72
2023/06/10 06:34:29;;;;;;;;;;;;;;;19.02;100.00;95355.34;10520019;28;1373;-72
2023/06/10 06:39:32;;;;;;;;;;;;;;;19.10;100.00;95350.94;10518540;28;1380;-72
2023/06/10 06:44:34;;;;;;;;;;;;;;;19.76;100.00;95352.69;10513219;28;5530;-72
2023/06/10 06:49:36;;;;;;;;;;;;;;;19.83;100.00;95355.63;10519665;28;1914;-71
2023/06/10 06:54:39;;;;;;;;;;;;;;;19.86;100.00;95350.31;10521535;28;1114;-71
2023/06/10 06:59:41;;;;;;;;;;;;;;;19.60;100.00;95347.94;10515792;28;2446;-72
2023/06/10 07:04:44;;;;;;;;;;;;;;;19.93;100.00;95355.19;10512819;28;1098;-71
2023/06/10 07:09:46;;;;;;;;;;;;;;;20.43;100.00;95354.72;10514134;28;1973;-71
2023/06/10 07:14:48;;;;;;;;;;;;;;;20.57;100.00;95361.75;10518959;28;1665;-73
2023/06/10 07:19:52;;;;;;;;;;;;;;;20.05;100.00;95368.00;10519360;28;1376;-72
2023/06/10 07:24:55;;;;;;;;;;;;;;;20.10;100.00;95367.75;10520373;28;1205;-72
2023/06/10 07:29:58;;;;;;;;;;;;;;;19.92;100.00;95367.25;10514400;28;1971;-71
2023/06/10 07:35:00;;;;;;;;;;;;;;;20.82;100.00;95360.50;10519999;28;1243;-71
2023/06/10 07:40:03;;;;;;;;;;;;;;;20.95;100.00;95363.97;10515706;28;5252;-72
2023/06/10 07:45:05;;;;;;;;;;;;;;;20.80;100.00;95365.50;10514302;28;1217;-72
2023/06/10 07:50:08;;;;;;;;;;;;;;;21.27;100.00;95360.13;10517629;28;1915;-72
2023/06/10 07:55:10;;;;;;;;;;;;;;;22.01;100.00;95352.16;10519122;28;2362;-71
2023/06/10 08:00:13;;;;;;;;;;;;;;;21.75;100.00;95352.72;10515801;28;1452;-73
2023/06/10 08:05:15;;;;;;;;;;;;;;;21.69;100.00;95356.09;10519249;28;1213;-72
2023/06/10 08:10:18;;;;;;;;;;;;;;;21.69;100.00;95354.13;10509599;28;1914;-72
2023/06/10 08:15:20;;;;;;;;;;;;;;;22.04;100.00;95351.44;10514855;28;1245;-72
2023/06/10 08:20:23;;;;;;;;;;;;;;;21.67;100.00;95358.38;10512071;28;1440;-72
2023/06/10 08:25:25;;;;;;;;;;;;;;;21.74;100.00;95353.88;10519169;28;1210;-72
2023/06/10 08:30:28;;;;;;;;;;;;;;;22.25;100.00;95353.88;10521228;28;1887;-72
2023/06/10 08:35:30;;;;;;;;;;;;;;;22.64;100.00;95354.69;10525749;28;1411;-74
2023/06/10 08:40:32;;;;;;;;;;;;;;;22.19;100.00;95360.78;10520854;28;5308;-72
2023/06/10 08:45:35;;;;;;;;;;;;;;;22.28;100.00;95363.34;10517597;28;1408;-72
2023/06/10 08:50:37;;;;;;;;;;;;;;;22.07;100.00;95360.88;10518472;28;2310;-72
2023/06/10 08:55:40;;;;;;;;;;;;;;;21.90;100.00;95362.06;10524635;28;1237;-72
2023/06/10 09:00:42;;;;;;;;;;;;;;;22.44;100.00;95353.09;10520471;28;1361;-73
2023/06/10 09:05:44;;;;;;;;;;;;;;;22.02;100.00;95353.75;10525254;28;1202;-73
2023/06/10 09:10:47;;;;;;;;;;;;;;;21.85;100.00;95365.06;10514519;28;1979;-72
2023/06/10 09:15:51;;;;;;;;;;;;;;;22.47;100.00;95352.41;10524703;28;1256;-72
2023/06/10 09:20:53;;;;;;;;;;;;;;;23.27;100.00;95356.28;10515639;28;1448;-73
2023/06/10 09:25:56;;;;;;;;;;;;;;;23.57;100.00;95353.66;10524294;28;1189;-72
2023/06/10 09:30:59;;;;;;;;;;;;;;;23.56;100.00;95351.31;10519515;28;1917;-72
2023/06/10 09:36:01;;;;;;;;;;;;;;;24.36;100.00;95343.91;10521893;28;1384;-72
2023/06/10 09:41:04;;;;;;;;;;;;;;;24.33;100.00;95347.38;10509341;28;5813;-72
2023/06/10 09:46:07;;;;;;;;;;;;;;;23.82;100.00;95353.31;10523088;28;2317;-72
2023/06/10 09:51:10;;;;;;;;;;;;;;;23.88;100.00;95351.84;10520491;28;1981;-72
2023/06/10 09:56:12;;;;;;;;;;;;;;;24.28;100.00;95354.75;10515670;28;1487;-73
2023/06/10 10:01:15;;;;;;;;;;;;;;;23.58;100.00;95343.47;10523305;28;1040;-72
2023/06/10 10:06:18;;;;;;;;;;;;;;;23.40;100.00;95354.94;10520980;28;1377;-72
2023/06/10 10:11:21;;;;;;;;;;;;;;;23.99;100.00;95352.78;10514311;28;1911;-73
2023/06/10 10:16:24;;;;;;;;;;;;;;;23.07;100.00;95349.28;10521910;28;1146;-72
2023/06/10 10:21:27;;;;;;;;;;;;;;;23.06;100.00;95362.19;10513815;28;1325;-72
2023/06/10 10:26:29;;;;;;;;;;;;;;;23.04;100.00;95355.50;10521862;28;1193;-72
2023/06/10 10:31:32;;;;;;;;;;;;;;;24.64;97.53;95349.78;10513361;28;1953;-73
2023/06/10 10:36:35;;;;;;;;;;;;;;;24.99;90.60;95354.09;10521346;28;1177;-72
2023/06/10 10:41:38;;;;;;;;;;;;;;;26.23;74.85;95343.41;10516822;28;5191;-72
2023/06/10 10:46:41;;;;;;;;;;;;;;;26.18;74.88;95335.50;10519860;28;1421;-73
2023/06/10 10:51:44;;;;;;;;;;;;;;;26.34;64.75;95336.00;10521482;28;1910;-72
2023/06/10 10:56:47;;;;;;;;;;;;;;;26.53;68.39;95328.59;10512780;28;1423;-73
2023/06/10 11:01:51;;;;;;;;;;;;;;;26.27;73.57;95327.66;10512938;28;1471;-73
2023/06/10 11:06:54;;;;;;;;;;;;;;;26.75;70.85;95330.28;10520837;28;1099;-73
2023/06/10 11:11:57;;;;;;;;;;;;;;;26.67;69.80;95325.94;10518407;28;1977;-73
2023/06/10 11:17:00;;;;;;;;;;;;;;;25.85;73.00;95326.22;10520251;28;1251;-73
2023/06/10 11:22:03;;;;;;;;;;;;;;;25.61;73.43;95333.09;10516277;28;1384;-73
2023/06/10 11:27:05;;;;;;;;;;;;;;;25.33;74.08;95330.91;10518205;28;1424;-72
2023/06/10 11:32:07;;;;;;;;;;;;;;;25.37;73.01;95330.13;10509956;28;1910;-73
2023/06/10 11:37:10;;;;;;;;;;;;;;;25.59;71.88;95315.41;10518475;28;2395;-73
2023/06/10 11:42:12;;;;;;;;;;;;;;;25.53;72.44;95317.69;10517374;28;5173;-73
2023/06/10 11:47:15;;;;;;;;;;;;;;;25.73;65.82;95325.75;10519181;28;1233;-73
2023/06/10 11:52:17;;;;;;;;;;;;;;;25.00;70.17;95322.66;10506624;28;1949;-73
2023/06/10 11:57:20;;;;;;;;;;;;;;;25.69;66.81;95311.91;10513457;28;1213;-73
2023/06/10 12:02:22;;;;;;;;;;;;;;;25.72;66.41;95311.16;10517988;28;1451;-72
2023/06/10 12:07:25;;;;;;;;;;;;;;;26.24;60.52;95308.38;10519581;28;1186;-73
2023/06/10 12:12:27;;;;;;;;;;;;;;;26.46;55.38;95301.00;10516245;28;1910;-74
2023/06/10 12:17:30;;;;;;;;;;;;;;;26.26;57.88;95306.78;10518978;28;1254;-73
2023/06/10 12:22:32;;;;;;;;;;;;;;;26.39;54.66;95296.22;10515788;28;1392;-73
2023/06/10 12:27:34;;;;;;;;;;;;;;;25.91;57.35;95288.13;10517606;28;1467;-72
2023/06/10 12:32:37;;;;;;;;;;;;;;;25.78;55.60;95295.13;10518462;28;1914;-73
2023/06/10 12:37:39;;;;;;;;;;;;;;;25.79;58.27;95294.72;10510914;28;2437;-72
2023/06/10 12:42:45;;;;;;;;;;;;;;;25.63;59.78;95299.69;10515233;28;5291;-74
2023/06/10 12:47:51;;;;;;;;;;;;;;;26.59;59.07;95288.47;10499997;28;1272;-73
2023/06/10 12:52:53;;;;;;;;;;;;;;;26.04;65.94;95274.81;10504922;28;1953;-73
2023/06/10 12:57:56;;;;;;;;;;;;;;;26.40;61.45;95273.84;10517168;28;1252;-72
2023/06/10 13:02:59;;;;;;;;;;;;;;;26.37;84.44;95271.03;10509377;28;1375;-71
2023/06/10 13:08:02;;;;;;;;;;;;;;;25.51;92.44;95286.22;10517722;28;1189;-73
2023/06/10 13:13:07;;;;;;;;;;;;;;;24.73;100.00;95286.25;10514021;28;1878;-73
2023/06/10 13:18:10;;;;;;;;;;;;;;;24.41;100.00;95296.88;10525183;28;1189;-74
2023/06/10 13:23:13;;;;;;;;;;;;;;;24.91;100.00;95286.44;10524141;28;1579;-73
2023/06/10 13:28:16;;;;;;;;;;;;;;;25.01;100.00;95272.03;10522337;28;1471;-73
2023/06/10 13:33:18;;;;;;;;;;;;;;;24.83;98.11;95279.31;10519814;28;2256;-73
2023/06/10 13:38:21;;;;;;;;;;;;;;;24.57;90.28;95281.00;10519092;28;1360;-73
2023/06/10 13:43:23;;;;;;;;;;;;;;;24.77;91.08;95287.88;10521875;28;5761;-74
2023/06/10 13:48:25;;;;;;;;;;;;;;;24.37;90.60;95282.31;10523402;28;1458;-72
2023/06/10 13:53:28;;;;;;;;;;;;;;;24.70;89.50;95276.81;10513538;28;1993;-73
2023/06/10 13:58:30;;;;;;;;;;;;;;;24.64;93.17;95270.06;10522455;28;1538;-73
2023/06/10 14:03:32;;;;;;;;;;;;;;;24.47;92.97;95268.69;10523911;28;1122;-72
2023/06/10 14:08:35;;;;;;;;;;;;;;;24.71;91.91;95267.41;10523828;28;1393;-73
2023/06/10 14:13:40;;;;;;;;;;;;;;;24.50;93.49;95272.66;10520558;28;1914;-73
2023/06/10 14:18:43;;;;;;;;;;;;;;;24.11;95.78;95277.63;10523268;28;1151;-72
2023/06/10 14:23:45;;;;;;;;;;;;;;;24.87;93.79;95274.63;10520807;28;1633;-73
2023/06/10 14:28:47;;;;;;;;;;;;;;;24.93;93.48;95278.59;10514728;28;2403;-74
2023/06/10 14:33:50;;;;;;;;;;;;;;;24.95;87.35;95279.81;10521812;28;1974;-71
2023/06/10 14:38:53;;;;;;;;;;;;;;;25.14;86.32;95273.34;10494991;28;1396;-73
2023/06/10 14:43:55;;;;;;;;;;;;;;;25.14;80.17;95273.34;10518953;28;5141;-73
2023/06/10 14:48:59;;;;;;;;;;;;;;;25.20;80.44;95282.84;10522921;28;1586;-72
2023/06/10 14:54:01;;;;;;;;;;;;;;;25.41;84.21;95268.47;10517790;28;1918;-73
2023/06/10 14:59:03;;;;;;;;;;;;;;;25.34;81.57;95277.44;10522142;28;1239;-71
2023/06/10 15:04:06;;;;;;;;;;;;;;;25.51;83.99;95269.72;10510608;28;1373;-73
2023/06/10 15:09:08;;;;;;;;;;;;;;;26.03;85.43;95273.25;10520269;28;1131;-74
2023/06/10 15:14:11;;;;;;;;;;;;;;;25.98;88.59;95276.34;10519129;28;1922;-74
2023/06/10 15:19:14;;;;;;;;;;;;;;;26.09;86.38;95278.00;10520106;28;1130;-73
2023/06/10 15:24:16;;;;;;;;;;;;;;;25.68;88.32;95271.81;10518999;28;1602;-72
2023/06/10 15:29:20;;;;;;;;;;;;;;;26.46;79.26;95270.69;10514060;28;1448;-73
2023/06/10 15:34:22;;;;;;;;;;;;;;;26.38;79.81;95269.84;10518536;28;1960;-72
2023/06/10 15:39:27;;;;;;;;;;;;;;;26.04;79.56;95270.09;10512491;28;1451;-73
2023/06/10 15:44:29;;;;;;;;;;;;;;;26.26;70.25;95262.72;10501822;28;1410;-72
2023/06/10 15:49:31;;;;;;;;;;;;;;;25.99;78.26;95261.41;10516891;28;1484;-72
2023/06/10 15:54:34;;;;;;;;;;;;;;;25.64;78.81;95276.50;10518803;28;1910;-74
2023/06/10 15:59:36;;;;;;;;;;;;;;;24.64;92.01;95283.03;10517535;28;1446;-73
2023/06/10 16:04:39;;;;;;;;;;;;;;;24.40;100.00;95287.06;10518733;28;1142;-73
2023/06/10 16:09:42;;;;;;;;;;;;;;;24.89;100.00;95275.03;10510701;28;1508;-73
2023/06/10 16:14:44;;;;;;;;;;;;;;;24.60;100.00;95273.94;10500863;28;1963;-74
2023/06/10 16:19:47;;;;;;;;;;;;;;;24.77;100.00;95285.13;10513760;28;2363;-73
2023/06/10 16:24:49;;;;;;;;;;;;;;;24.53;100.00;95289.19;10516799;28;1128;-73
2023/06/10 16:29:52;;;;;;;;;;;;;;;24.41;100.00;95294.13;10516813;28;1415;-73
2023/06/10 16:34:55;;;;;;;;;;;;;;;24.04;100.00;95300.28;10517490;28;1890;-74
2023/06/10 16:39:58;;;;;;;;;;;;;;;23.69;100.00;95311.56;10509593;28;5717;-74
2023/06/10 16:45:03;;;;;;;;;;;;;;;23.52;100.00;95312.81;10518213;28;1100;-73
2023/06/10 16:50:06;;;;;;;;;;;;;;;23.62;100.00;95317.72;10515329;28;1361;-72
2023/06/10 16:55:08;;;;;;;;;;;;;;;23.23;100.00;95338.22;10523941;28;1882;-72
2023/06/10 17:00:11;;;;;;;;;;;;;;;23.01;100.00;95334.28;10519172;28;1421;-73
2023/06/10 17:05:14;;;;;;;;;;;;;;;23.36;100.00;95331.38;10524901;28;1141;-72
2023/06/10 17:10:17;;;;;;;;;;;;;;;23.17;100.00;95340.47;10528843;28;1384;-73
2023/06/10 17:15:19;;;;;;;;;;;;;;;23.28;100.00;95341.41;10507470;28;2416;-73
2023/06/10 17:20:22;;;;;;;;;;;;;;;23.25;100.00;95335.88;10524546;28;1113;-72
2023/06/10 17:25:24;;;;;;;;;;;;;;;23.10;100.00;95343.88;10521308;28;1357;-74
2023/06/10 17:30:27;;;;;;;;;;;;;;;23.11;100.00;95339.16;10525732;28;1262;-75
2023/06/10 17:35:29;;;;;;;;;;;;;;;22.78;100.00;95343.25;10522228;28;1894;-74
2023/06/10 17:40:32;;;;;;;;;;;;;;;22.39;100.00;95342.44;10519754;28;5114;-73
2023/06/10 17:45:34;;;;;;;;;;;;;;;22.02;100.00;95353.75;10510531;28;1955;-73
2023/06/10 17:50:37;;;;;;;;;;;;;;;21.79;100.00;95358.28;10523171;28;1122;-73
2023/06/10 17:55:40;;;;;;;;;;;;;;;21.17;100.00;95368.84;10516115;28;1894;-72
2023/06/10 18:00:42;;;;;;;;;;;;;;;21.09;100.00;95364.34;10522552;28;1181;-73
2023/06/10 18:05:45;;;;;;;;;;;;;;;20.89;100.00;95360.69;10515983;28;1435;-72
2023/06/10 18:10:47;;;;;;;;;;;;;;;20.69;100.00;95365.22;10518580;28;1420;-73
2023/06/10 18:15:50;;;;;;;;;;;;;;;20.64;100.00;95372.88;10519587;28;2671;-72
2023/06/10 18:20:52;;;;;;;;;;;;;;;20.62;100.00;95381.41;10515400;28;1404;-72
2023/06/10 18:25:55;;;;;;;;;;;;;;;20.37;100.00;95375.22;10522426;28;1225;-72
2023/06/10 18:30:58;;;;;;;;;;;;;;;20.19;100.00;95382.06;10517638;28;1364;-74
2023/06/10 18:36:00;;;;;;;;;;;;;;;20.11;100.00;95380.28;10521894;28;1959;-73
2023/06/10 18:41:03;;;;;;;;;;;;;;;19.94;100.00;95390.28;10511298;28;5678;-74
2023/06/10 18:46:05;;;;;;;;;;;;;;;19.87;100.00;95390.06;10520082;28;1484;-74
2023/06/10 18:51:08;;;;;;;;;;;;;;;19.67;100.00;95397.25;10520476;28;1146;-72
2023/06/10 18:56:12;;;;;;;;;;;;;;;19.52;100.00;95405.25;10515365;28;1914;-73
2023/06/10 19:01:15;;;;;;;;;;;;;;;19.35;100.00;95407.06;10519265;28;1413;-73
2023/06/10 19:06:17;;;;;;;;;;;;;;;19.22;100.00;95416.34;10520337;28;1153;-73
2023/06/10 19:11:21;;;;;;;;;;;;;;;19.14;100.00;95414.50;10507324;28;2468;-73
2023/06/10 19:16:24;;;;;;;;;;;;;;;18.99;100.00;95426.81;10520073;28;1961;-73
2023/06/10 19:21:26;;;;;;;;;;;;;;;18.92;100.00;95442.13;10509552;28;1413;-73
2023/06/10 19:26:29;;;;;;;;;;;;;;;18.82;100.00;95449.56;10514742;28;1393;-73
2023/06/10 19:31:31;;;;;;;;;;;;;;;18.71;100.00;95450.31;10519563;28;1134;-73
2023/06/10 19:36:34;;;;;;;;;;;;;;;18.61;100.00;95467.81;10517268;28;1963;-73
2023/06/10 19:41:36;;;;;;;;;;;;;;;18.50;100.00;95466.59;10514320;28;5740;-73
2023/06/10 19:46:39;;;;;;;;;;;;;;;18.43;100.00;95474.50;10519525;28;1201;-73
2023/06/10 19:51:45;;;;;;;;;;;;;;;18.34;100.00;95472.66;10517302;28;1364;-73
2023/06/10 19:56:48;;;;;;;;;;;;;;;18.32;100.00;95479.53;10518770;28;1963;-73
2023/06/10 20:01:50;;;;;;;;;;;;;;;18.21;100.00;95484.56;10518577;28;1432;-73
2023/06/10 20:06:53;;;;;;;;;;;;;;;18.16;100.00;95490.19;10524575;28;2608;-72
2023/06/10 20:11:56;;;;;;;;;;;;;;;18.05;100.00;95492.47;10511680;28;1559;-73
2023/06/10 20:16:58;;;;;;;;;;;;;;;17.95;100.00;95498.31;10518005;28;1918;-73
2023/06/10 20:22:03;;;;;;;;;;;;;;;17.81;100.00;95495.81;10520657;28;1404;-72
2023/06/10 20:27:06;;;;;;;;;;;;;;;17.72;100.00;95497.75;10526905;28;1165;-71
2023/06/10 20:32:09;;;;;;;;;;;;;;;17.62;100.00;95498.06;10501069;28;1432;-74
2023/06/10 20:37:11;;;;;;;;;;;;;;;17.55;100.00;95495.06;10526380;28;1917;-72
2023/06/10 20:42:14;;;;;;;;;;;;;;;17.47;100.00;95504.03;10520759;28;5129;-73
2023/06/10 20:47:18;;;;;;;;;;;;;;;17.35;100.00;95507.41;10526309;28;1135;-73
2023/06/10 20:52:21;;;;;;;;;;;;;;;17.27;100.00;95510.97;10520996;28;1392;-74
2023/06/10 20:57:24;;;;;;;;;;;;;;;17.21;100.00;95512.25;10526135;28;1902;-71
2023/06/10 21:02:27;;;;;;;;;;;;;;;17.39;100.00;95502.16;10520024;28;2276;-71
2023/06/10 21:07:29;;;;;;;;;;;;;;;17.27;100.00;95510.97;10516993;28;1971;-72
2023/06/10 21:12:32;;;;;;;;;;;;;;;17.13;100.00;95519.28;10518118;28;2399;-68
2023/06/10 21:17:35;;;;;;;;;;;;;;;17.01;100.00;95527.28;10527949;28;1982;-71
2023/06/10 21:22:37;;;;;;;;;;;;;;;16.90;100.00;95534.16;10517242;28;1504;-71
2023/06/10 21:27:40;;;;;;;;;;;;;;;16.85;100.00;95543.25;10518673;28;1882;-70
2023/06/10 21:32:43;;;;;;;;;;;;;;;16.79;100.00;95535.56;10510612;28;1458;-71
2023/06/10 21:37:45;;;;;;;;;;;;;;;16.83;100.00;95533.81;10516961;28;1945;-70
2023/06/10 21:42:48;;;;;;;;;;;;;;;16.75;100.00;95543.56;10514052;28;5465;-70
2023/06/10 21:47:51;;;;;;;;;;;;;;;16.74;100.00;95536.53;10515270;28;1859;-71
2023/06/10 21:52:53;;;;;;;;;;;;;;;16.69;100.00;95532.03;10512124;28;1977;-71
2023/06/10 21:57:58;;;;;;;;;;;;;;;16.58;100.00;95536.16;10503387;28;2290;-70
2023/06/10 22:03:00;;;;;;;;;;;;;;;16.56;100.00;95535.69;10512327;28;2074;-70
2023/06/10 22:08:03;;;;;;;;;;;;;;;16.48;100.00;95536.47;10509792;28;2022;-70
2023/06/10 22:13:07;;;;;;;;;;;;;;;16.51;100.00;95538.56;10512948;28;1996;-70
2023/06/10 22:18:10;;;;;;;;;;;;;;;16.45;100.00;95540.63;10508517;28;2019;-70
2023/06/10 22:23:13;;;;;;;;;;;;;;;16.40;100.00;95537.25;10503730;28;2098;-71
2023/06/10 22:28:15;;;;;;;;;;;;;;;16.30;100.00;95537.56;10508327;28;1929;-72
2023/06/10 22:33:18;;;;;;;;;;;;;;;16.20;100.00;95538.63;10509557;28;1954;-71
2023/06/10 22:38:20;;;;;;;;;;;;;;;16.18;100.00;95519.97;10482780;28;2277;-73
2023/06/10 22:43:22;;;;;;;;;;;;;;;16.13;100.00;95528.25;10494431;28;5332;-71
2023/06/10 22:48:25;;;;;;;;;;;;;;;16.10;100.00;95528.09;10511768;28;2225;-71
2023/06/10 22:53:27;;;;;;;;;;;;;;;16.00;100.00;95542.72;10494089;28;2410;-70
2023/06/10 22:58:30;;;;;;;;;;;;;;;15.94;100.00;95541.25;10502155;28;2130;-72
2023/06/10 23:03:32;;;;;;;;;;;;;;;15.81;100.00;95534.03;10503328;28;2002;-72
2023/06/10 23:08:34;;;;;;;;;;;;;;;15.77;100.00;95547.41;10500337;28;2019;-71
2023/06/10 23:13:37;;;;;;;;;;;;;;;15.70;100.00;95546.25;10495891;28;1960;-71
2023/06/10 23:18:41;;;;;;;;;;;;;;;15.62;100.00;95547.81;10494962;28;2005;-71
2023/06/10 23:23:44;;;;;;;;;;;;;;;15.64;100.00;95554.50;10499081;28;1983;-71
2023/06/10 23:28:47;;;;;;;;;;;;;;;15.63;100.00;95546.69;10502836;28;2021;-71
2023/06/10 23:33:49;;;;;;;;;;;;;;;15.55;100.00;95550.94;10504024;28;2266;-72
2023/06/10 23:38:52;;;;;;;;;;;;;;;15.51;100.00;95555.34;10503051;28;2050;-71
2023/06/10 23:43:54;;;;;;;;;;;;;;;15.47;100.00;95557.09;10495849;28;4583;-71
2023/06/10 23:48:57;;;;;;;;;;;;;;;15.40;100.00;95564.88;10502716;28;2722;-71
2023/06/10 23:54:00;;;;;;;;;;;;;;;15.39;100.00;95564.03;10496630;28;1970;-71
2023/06/10 23:59:02;;;;;;;;;;;;;;;15.37;100.00;95560.06;10500328;28;1996;-71
